Time;durP1;ratioP1;P1;durP2;ratioP2;P2;SDS_P1;SDS_P2;PMS_P1;PMS_P2;Temp;Humidity;BMP_temperature;BMP_pressure;BME280_temperature;BME280_humidity;BME280_pressure;Samples;Min_cycle;Max_cycle;Signal;HPM_P1;HPM_P2
2021/01/05 07:26:54;;;;;;;6.97;2.45;;;1.50;99.90;;;;;;5182629;23;20121;-94
2021/01/05 07:29:21;;;;;;;13.45;2.90;;;1.50;99.90;;;;;;4920424;29;20024;-94
2021/01/05 07:31:48;;;;;;;6.63;1.90;;;1.50;99.90;;;;;;4925731;29;20023;-95
2021/01/05 07:34:14;;;;;;;8.63;2.60;;;1.50;99.90;;;;;;4926764;29;20031;-93
2021/01/05 07:36:44;;;;;;;6.93;2.95;;;1.50;99.90;;;;;;4922450;29;20059;-94
2021/01/05 07:39:14;;;;;;;5.88;2.03;;;1.50;99.90;;;;;;4933989;29;20178;-96
2021/01/05 07:41:40;;;;;;;6.97;2.00;;;1.50;99.90;;;;;;4925995;29;20066;-95
2021/01/05 07:44:06;;;;;;;4.13;1.90;;;1.50;99.90;;;;;;4928675;29;20063;-94
2021/01/05 07:46:38;;;;;;;4.78;2.10;;;1.50;99.90;;;;;;4929857;29;20032;-95
2021/01/05 07:49:05;;;;;;;11.73;2.40;;;1.50;99.90;;;;;;4935032;29;20032;-96
2021/01/05 07:51:33;;;;;;;5.20;2.25;;;1.50;99.90;;;;;;4937929;29;20020;-94
2021/01/05 07:53:59;;;;;;;11.43;2.72;;;1.50;99.90;;;;;;4924314;29;20024;-96
2021/01/05 07:56:25;;;;;;;6.47;2.20;;;1.50;99.90;;;;;;4922461;29;20035;-96
2021/01/05 07:58:50;;;;;;;9.48;2.67;;;1.50;99.90;;;;;;4917235;29;20470;-95
2021/01/05 08:01:16;;;;;;;10.63;2.25;;;1.50;99.90;;;;;;4921500;29;20123;-95
2021/01/05 08:03:42;;;;;;;8.35;2.08;;;1.50;99.90;;;;;;4924649;29;20117;-93
2021/01/05 08:06:08;;;;;;;5.70;1.67;;;1.50;99.90;;;;;;4907928;29;20040;-94
2021/01/05 08:08:46;;;;;;;6.22;1.55;;;1.50;99.90;;;;;;4922366;29;20087;-92
2021/01/05 08:11:12;;;;;;;6.53;1.60;;;1.50;99.90;;;;;;4922824;29;20060;-93
2021/01/05 08:13:38;;;;;;;6.65;1.10;;;1.50;99.90;;;;;;4925787;29;20028;-93
2021/01/05 08:16:04;;;;;;;8.82;1.60;;;1.50;99.90;;;;;;4951698;28;20120;-92
2021/01/05 08:18:30;;;;;;;7.00;1.23;;;1.50;99.90;;;;;;4926725;29;20019;-95
2021/01/05 08:20:55;;;;;;;2.67;1.00;;;1.50;99.90;;;;;;4878801;29;21122;-94
2021/01/05 08:23:21;;;;;;;4.20;0.93;;;1.50;99.90;;;;;;4904334;29;20024;-95
2021/01/05 08:25:47;;;;;;;2.50;0.77;;;1.60;99.90;;;;;;4918546;29;20047;-93
2021/01/05 08:28:12;;;;;;;6.43;1.02;;;1.60;99.90;;;;;;4926614;29;20032;-93
2021/01/05 08:30:39;;;;;;;5.40;1.00;;;1.60;99.90;;;;;;4926439;29;20035;-95
2021/01/05 08:33:08;;;;;;;4.80;1.13;;;1.60;99.90;;;;;;4930036;29;20043;-95
2021/01/05 08:35:34;;;;;;;5.50;0.82;;;1.60;99.90;;;;;;4922066;29;20099;-94
2021/01/05 08:37:59;;;;;;;2.72;1.05;;;1.60;99.90;;;;;;4905513;29;20038;-95
2021/01/05 08:40:29;;;;;;;3.40;0.70;;;1.70;99.90;;;;;;4923951;29;20024;-93
2021/01/05 08:42:57;;;;;;;2.28;0.80;;;1.60;99.90;;;;;;4943595;28;20052;-88
2021/01/05 08:45:23;;;;;;;1.50;0.82;;;1.70;99.90;;;;;;4942424;29;20026;-91
2021/01/05 08:47:51;;;;;;;4.88;1.05;;;1.70;99.90;;;;;;4939433;29;20032;-94
2021/01/05 08:50:22;;;;;;;8.73;1.10;;;1.70;99.90;;;;;;4925029;29;20087;-91
2021/01/05 08:52:47;;;;;;;7.82;1.20;;;1.70;99.90;;;;;;4923100;29;20042;-94
2021/01/05 08:55:14;;;;;;;12.15;1.20;;;1.70;99.90;;;;;;4915528;29;20406;-94
2021/01/05 08:57:40;;;;;;;8.35;1.15;;;1.70;99.90;;;;;;4911645;29;20036;-94
2021/01/05 09:00:06;;;;;;;2.30;0.82;;;1.70;99.90;;;;;;4906752;29;20057;-95
2021/01/05 09:02:32;;;;;;;5.93;1.23;;;1.60;99.90;;;;;;4899079;29;20067;-94
2021/01/05 09:04:58;;;;;;;2.85;1.27;;;1.70;99.90;;;;;;4914257;29;20136;-95
2021/01/05 09:07:25;;;;;;;8.48;1.45;;;1.70;99.90;;;;;;4908294;29;20450;-94
2021/01/05 09:09:52;;;;;;;2.40;1.20;;;1.60;99.90;;;;;;4918574;29;20036;-96
2021/01/05 09:12:18;;;;;;;5.97;1.45;;;1.60;99.90;;;;;;4906850;29;20059;-94
2021/01/05 09:14:44;;;;;;;4.18;1.38;;;1.60;99.90;;;;;;4923962;29;20035;-94
2021/01/05 09:17:09;;;;;;;6.50;1.70;;;1.60;99.90;;;;;;4925217;29;20040;-93
2021/01/05 09:19:38;;;;;;;7.55;1.63;;;1.60;99.90;;;;;;4911612;29;20038;-92
2021/01/05 09:22:04;;;;;;;8.05;1.17;;;1.60;99.90;;;;;;4914760;29;20088;-92
2021/01/05 10:58:35;;;;;;;5.93;2.20;;;2.10;99.90;;;;;;5406098;23;20046;-94
2021/01/05 11:01:01;;;;;;;8.23;1.80;;;2.10;99.90;;;;;;4962016;28;20027;-96
2021/01/05 11:03:28;;;;;;;7.68;2.00;;;2.10;99.90;;;;;;4950747;28;20191;-93
2021/01/05 11:05:53;;;;;;;7.60;2.00;;;2.10;99.90;;;;;;4957472;28;20024;-93
2021/01/05 11:08:19;;;;;;;4.45;2.40;;;2.10;99.90;;;;;;4964908;28;20074;-92
2021/01/05 11:10:45;;;;;;;5.32;2.10;;;2.10;99.90;;;;;;4945383;28;20027;-93
2021/01/05 11:13:10;;;;;;;4.88;2.00;;;2.20;99.90;;;;;;4961977;28;20083;-93
2021/01/05 11:15:36;;;;;;;5.00;2.08;;;2.20;99.90;;;;;;4964971;28;20083;-92
2021/01/05 11:18:02;;;;;;;2.80;1.55;;;2.40;99.90;;;;;;4956763;28;20055;-92
2021/01/05 11:20:27;;;;;;;5.55;1.92;;;2.80;99.90;;;;;;4961310;28;20007;-93
2021/01/05 11:22:53;;;;;;;9.50;2.08;;;3.30;99.90;;;;;;4958912;28;20019;-95
2021/01/05 11:25:19;;;;;;;6.70;2.00;;;3.60;99.90;;;;;;4954550;28;20039;-95
2021/01/05 11:27:45;;;;;;;7.45;2.08;;;3.70;99.90;;;;;;4943207;28;20016;-92
2021/01/05 11:30:19;;;;;;;6.25;2.47;;;3.70;99.90;;;;;;4957103;28;20042;-92
2021/01/05 11:32:45;;;;;;;8.50;1.77;;;3.60;99.90;;;;;;4961605;28;20036;-93
2021/01/05 11:35:13;;;;;;;6.70;1.83;;;3.70;99.90;;;;;;4962894;28;20023;-92
2021/01/05 11:37:39;;;;;;;3.70;1.60;;;3.70;99.90;;;;;;4958955;29;20071;-95
2021/01/05 11:40:06;;;;;;;4.85;1.73;;;3.80;99.90;;;;;;4944485;29;20028;-96
2021/01/05 11:42:32;;;;;;;5.60;1.95;;;3.70;99.90;;;;;;4957490;29;20028;-95
2021/01/05 11:45:01;;;;;;;8.15;2.65;;;3.60;99.90;;;;;;4963028;28;20022;-94
2021/01/05 11:47:28;;;;;;;6.30;2.03;;;3.50;99.90;;;;;;4963761;28;20039;-93
2021/01/05 11:49:54;;;;;;;2.83;1.77;;;3.40;99.90;;;;;;4954347;28;20087;-93
2021/01/05 11:52:19;;;;;;;9.60;4.60;;;3.20;99.90;;;;;;4945089;29;20015;-92
2021/01/05 11:54:45;;;;;;;14.23;4.68;;;3.10;99.90;;;;;;4944465;29;20031;-95
2021/01/05 11:57:11;;;;;;;10.63;3.50;;;3.20;99.90;;;;;;4943945;28;20066;-94
2021/01/05 11:59:38;;;;;;;5.45;2.22;;;3.40;99.90;;;;;;4958503;28;20091;-94
2021/01/05 12:02:06;;;;;;;10.45;1.40;;;3.70;99.90;;;;;;4943868;28;20016;-96
2021/01/05 12:04:31;;;;;;;9.18;2.03;;;4.10;99.90;;;;;;4944149;28;20034;-92
2021/01/05 12:06:57;;;;;;;6.50;1.38;;;4.40;99.90;;;;;;4940656;28;20015;-93
2021/01/05 12:09:27;;;;;;;2.75;1.40;;;4.50;99.90;;;;;;4942041;28;20019;-93
2021/01/05 12:12:08;;;;;;;6.85;2.25;;;4.40;99.90;;;;;;4942361;28;20016;-92
2021/01/05 12:14:42;;;;;;;11.85;1.70;;;4.20;99.90;;;;;;4964104;28;20031;-89
2021/01/05 12:17:18;;;;;;;10.43;2.10;;;4.10;99.90;;;;;;4958612;28;20026;-95
2021/01/05 12:19:50;;;;;;;4.68;1.67;;;4.20;99.90;;;;;;4954094;29;20059;-94
2021/01/05 12:22:16;;;;;;;6.68;2.03;;;4.70;99.90;;;;;;5010439;23;20035;-91
2021/01/05 12:24:42;;;;;;;12.13;2.92;;;5.40;99.90;;;;;;4938990;29;20016;-93
2021/01/05 12:27:12;;;;;;;5.00;1.85;;;6.00;99.90;;;;;;4940051;28;20020;-92
2021/01/05 12:29:47;;;;;;;10.52;2.33;;;6.80;99.90;;;;;;4939841;28;20023;-93
2021/01/05 12:32:17;;;;;;;5.68;2.20;;;7.40;99.90;;;;;;4955114;28;20050;-92
2021/01/05 12:34:52;;;;;;;7.63;1.80;;;7.90;99.90;;;;;;4940354;28;20015;-92
2021/01/05 12:37:23;;;;;;;6.15;1.50;;;8.20;99.90;;;;;;4936824;29;20087;-92
2021/01/05 12:39:49;;;;;;;6.45;1.70;;;8.40;99.90;;;;;;4934758;28;20032;-93
2021/01/05 12:42:21;;;;;;;2.78;1.60;;;8.60;99.90;;;;;;4943277;28;20023;-92
2021/01/05 12:44:49;;;;;;;7.55;1.60;;;8.90;98.10;;;;;;4934671;29;20020;-92
2021/01/05 12:47:15;;;;;;;4.35;1.67;;;9.00;97.40;;;;;;4932107;28;20055;-91
2021/01/05 16:17:31;;;;;;;5.68;2.25;;;3.20;99.90;;;;;;5828053;23;19929;-93
2021/01/05 16:19:57;;;;;;;4.65;2.72;;;3.20;99.90;;;;;;4943108;29;20110;-94
2021/01/05 16:22:34;;;;;;;4.70;2.92;;;3.20;99.90;;;;;;4918638;29;20060;-95
2021/01/05 16:25:44;;;;;;;6.65;2.72;;;3.10;99.90;;;;;;4921516;29;20028;-95
2021/01/05 16:28:36;;;;;;;6.32;2.95;;;3.10;99.90;;;;;;4933716;29;20040;-95
2021/01/05 16:38:01;;;;;;;;;;;;;;;;;;;;;
2021/01/05 16:44:47;;;;;;;;;;;;;;;;;;;;;
2021/01/05 16:54:39;;;;;;;4.05;2.78;;;2.70;99.90;;;;;;4734917;30;20075;-94
